Time;durP1;ratioP1;P1;durP2;ratioP2;P2;SDS_P1;SDS_P2;PMS_P1;PMS_P2;Temp;Humidity;BMP_temperature;BMP_pressure;BME280_temperature;BME280_humidity;BME280_pressure;Samples;Min_cycle;Max_cycle;Signal;HPM_P1;HPM_P2
2023/07/25 00:01:47;;;;;;;3.53;2.33;;;13.60;99.90;;;;;;5022455;28;20261;-85
2023/07/25 00:04:15;;;;;;;4.50;2.38;;;13.50;99.90;;;;;;5018859;28;20215;-84
2023/07/25 00:06:43;;;;;;;7.22;2.50;;;13.60;99.90;;;;;;5022672;28;20201;-83
2023/07/25 00:09:10;;;;;;;5.95;2.92;;;13.60;99.90;;;;;;5029623;28;20301;-85
2023/07/25 00:11:38;;;;;;;8.45;2.90;;;13.60;99.90;;;;;;5023559;28;20876;-84
2023/07/25 00:14:05;;;;;;;7.03;3.00;;;13.50;99.90;;;;;;5031768;27;20642;-85
2023/07/25 00:16:33;;;;;;;8.48;3.40;;;13.30;99.90;;;;;;5026505;28;20668;-85
2023/07/25 00:19:01;;;;;;;5.75;3.20;;;13.40;99.90;;;;;;5033643;28;20206;-87
2023/07/25 00:21:29;;;;;;;8.98;4.38;;;13.50;99.90;;;;;;5023477;27;20193;-86
2023/07/25 00:23:57;;;;;;;7.30;3.80;;;13.60;99.90;;;;;;5022983;28;20210;-85
2023/07/25 00:26:24;;;;;;;5.72;4.20;;;13.50;99.90;;;;;;5021741;28;20189;-86
2023/07/25 00:28:52;;;;;;;4.90;3.28;;;13.50;99.90;;;;;;5019253;28;20244;-83
2023/07/25 00:31:20;;;;;;;6.07;3.45;;;13.50;99.90;;;;;;5019642;28;20190;-84
2023/07/25 00:33:48;;;;;;;4.65;3.50;;;13.50;99.90;;;;;;5002622;28;20195;-85
2023/07/25 00:36:15;;;;;;;5.78;3.00;;;13.60;99.90;;;;;;5019508;28;20223;-85
2023/07/25 00:38:43;;;;;;;7.35;3.40;;;13.60;99.90;;;;;;5019763;28;20230;-85
2023/07/25 00:41:10;;;;;;;4.22;2.75;;;13.70;99.90;;;;;;5021227;28;20186;-84
2023/07/25 00:43:38;;;;;;;5.88;3.03;;;13.70;99.90;;;;;;5023121;28;20217;-84
2023/07/25 00:46:06;;;;;;;4.00;2.13;;;13.70;99.90;;;;;;5021884;28;20280;-85
2023/07/25 00:48:34;;;;;;;3.67;2.85;;;13.80;99.90;;;;;;5024020;28;20235;-85
2023/07/25 00:51:03;;;;;;;6.72;3.33;;;13.70;99.90;;;;;;5021875;28;20197;-85
2023/07/25 00:53:30;;;;;;;3.83;3.03;;;13.70;99.90;;;;;;5021354;28;20218;-85
2023/07/25 00:56:01;;;;;;;3.97;3.15;;;13.70;99.90;;;;;;5028887;28;20715;-85
2023/07/25 00:58:29;;;;;;;4.45;3.33;;;13.70;99.90;;;;;;5022097;28;20216;-85
2023/07/25 01:01:07;;;;;;;4.90;3.70;;;13.70;99.90;;;;;;5023280;28;20667;-85
2023/07/25 01:03:38;;;;;;;8.85;2.97;;;13.70;99.90;;;;;;5011739;28;20196;-84
2023/07/25 01:06:11;;;;;;;3.95;2.92;;;13.60;99.90;;;;;;5032005;28;20587;-85
2023/07/25 01:08:50;;;;;;;11.13;3.40;;;13.60;99.90;;;;;;5021449;28;20221;-85
2023/07/25 01:11:18;;;;;;;8.63;4.35;;;13.60;99.90;;;;;;5013709;28;20203;-83
2023/07/25 01:13:46;;;;;;;6.70;4.00;;;13.60;99.90;;;;;;5018344;28;20194;-85
2023/07/25 01:16:21;;;;;;;5.85;3.53;;;13.60;99.90;;;;;;5021776;28;20201;-84
2023/07/25 01:18:50;;;;;;;9.57;3.88;;;13.60;99.90;;;;;;5032594;28;20644;-85
2023/07/25 01:21:19;;;;;;;6.07;3.60;;;13.60;99.90;;;;;;5005941;28;20281;-85
2023/07/25 01:23:46;;;;;;;4.45;3.50;;;13.60;99.90;;;;;;5022316;28;20222;-84
2023/07/25 01:26:16;;;;;;;5.05;3.63;;;13.70;99.90;;;;;;5023715;28;20706;-85
2023/07/25 01:28:44;;;;;;;4.63;3.30;;;13.70;99.90;;;;;;5029571;28;20677;-85
2023/07/25 01:31:12;;;;;;;3.95;2.80;;;13.60;99.90;;;;;;5023374;28;20193;-84
2023/07/25 01:33:39;;;;;;;5.13;3.50;;;13.70;99.90;;;;;;5023853;27;20186;-85
2023/07/25 01:36:07;;;;;;;5.00;3.92;;;13.70;99.90;;;;;;5022633;28;20213;-85
2023/07/25 01:38:35;;;;;;;6.00;4.30;;;13.70;99.90;;;;;;5023183;28;20197;-84
2023/07/25 01:41:03;;;;;;;5.30;3.97;;;13.70;99.90;;;;;;5031283;28;20243;-85
2023/07/25 01:43:30;;;;;;;4.28;3.22;;;13.70;99.90;;;;;;5021232;28;20241;-86
2023/07/25 01:45:58;;;;;;;4.70;3.58;;;13.70;99.90;;;;;;5022581;28;20310;-86
2023/07/25 01:48:26;;;;;;;4.13;3.40;;;13.70;99.90;;;;;;5022280;28;20209;-85
2023/07/25 01:50:53;;;;;;;4.90;3.50;;;13.70;99.90;;;;;;5004436;28;20186;-86
2023/07/25 01:53:21;;;;;;;4.35;3.40;;;13.60;99.90;;;;;;5021950;28;20990;-86
2023/07/25 01:55:49;;;;;;;10.32;3.75;;;13.70;99.90;;;;;;5041108;28;20288;-85
2023/07/25 01:58:16;;;;;;;6.07;4.45;;;13.70;99.90;;;;;;5024243;28;20198;-86
2023/07/25 02:00:44;;;;;;;5.25;3.70;;;13.60;99.90;;;;;;5021195;28;20199;-87
2023/07/25 02:03:15;;;;;;;4.85;3.75;;;13.70;99.90;;;;;;5007658;28;20191;-86
2023/07/25 02:05:43;;;;;;;7.03;4.20;;;13.70;99.90;;;;;;5024453;28;20202;-84
2023/07/25 02:08:14;;;;;;;12.80;3.40;;;13.70;99.90;;;;;;5032039;28;20185;-85
2023/07/25 02:10:41;;;;;;;6.35;4.43;;;13.70;99.90;;;;;;5036214;28;20194;-86
2023/07/25 02:13:09;;;;;;;4.65;3.63;;;13.60;99.90;;;;;;5023989;28;20197;-84
2023/07/25 02:15:37;;;;;;;5.10;3.95;;;13.70;99.90;;;;;;5024250;28;20198;-86
2023/07/25 02:18:05;;;;;;;4.78;4.03;;;13.70;99.90;;;;;;5024839;28;20186;-86
2023/07/25 02:20:33;;;;;;;5.28;4.10;;;13.70;99.90;;;;;;5029167;28;20248;-85
2023/07/25 02:23:01;;;;;;;5.32;3.90;;;13.70;99.90;;;;;;5034837;27;20599;-85
2023/07/25 02:25:29;;;;;;;6.00;4.20;;;13.70;99.90;;;;;;5023119;28;20252;-86
2023/07/25 02:27:57;;;;;;;4.50;3.60;;;13.80;99.90;;;;;;5026407;28;20196;-86
2023/07/25 02:30:24;;;;;;;8.48;4.22;;;13.80;99.90;;;;;;5019276;28;20205;-85
2023/07/25 02:32:52;;;;;;;4.82;3.83;;;13.80;99.90;;;;;;5025099;28;20182;-86
2023/07/25 02:35:20;;;;;;;9.20;4.32;;;13.80;99.90;;;;;;5022294;28;20297;-86
2023/07/25 02:37:47;;;;;;;4.93;3.63;;;13.80;99.90;;;;;;5007628;28;20259;-84
2023/07/25 02:40:15;;;;;;;6.07;4.72;;;13.70;99.90;;;;;;5006666;28;20199;-85
2023/07/25 02:42:43;;;;;;;6.65;4.68;;;13.70;99.90;;;;;;5023563;28;21024;-85
2023/07/25 02:45:11;;;;;;;5.65;4.43;;;13.70;99.90;;;;;;5031501;28;20234;-84
2023/07/25 02:47:38;;;;;;;5.20;4.25;;;13.70;99.90;;;;;;5028915;28;20263;-85
2023/07/25 02:50:06;;;;;;;7.20;4.03;;;13.80;99.90;;;;;;5023775;28;20198;-84
2023/07/25 02:52:34;;;;;;;8.20;5.75;;;13.80;99.90;;;;;;5007324;28;20189;-84
2023/07/25 02:55:03;;;;;;;5.28;3.78;;;13.80;99.90;;;;;;5023341;28;20191;-84
2023/07/25 02:57:30;;;;;;;8.27;5.05;;;13.90;99.90;;;;;;5022674;28;20190;-84
2023/07/25 02:59:58;;;;;;;8.30;5.03;;;13.80;99.90;;;;;;5032895;28;20675;-84
2023/07/25 03:02:26;;;;;;;12.80;6.15;;;13.80;99.90;;;;;;5023930;28;20186;-84
2023/07/25 03:04:54;;;;;;;7.05;4.90;;;13.80;99.90;;;;;;5022371;28;20263;-85
2023/07/25 03:07:22;;;;;;;7.38;5.30;;;13.90;99.90;;;;;;5024472;28;20201;-84
2023/07/25 03:09:50;;;;;;;9.77;6.07;;;13.90;99.90;;;;;;5023655;28;20281;-84
2023/07/25 03:12:18;;;;;;;9.05;5.55;;;13.90;99.90;;;;;;5016420;28;20190;-84
2023/07/25 03:14:46;;;;;;;9.10;5.35;;;13.90;99.90;;;;;;5030143;28;20198;-84
2023/07/25 03:17:14;;;;;;;7.28;5.25;;;13.90;99.90;;;;;;5022109;28;20221;-85
2023/07/25 03:19:41;;;;;;;6.22;4.88;;;13.90;99.90;;;;;;5023012;28;20202;-84
2023/07/25 03:22:09;;;;;;;7.55;5.85;;;13.90;99.90;;;;;;5024146;28;20247;-87
2023/07/25 03:24:37;;;;;;;6.78;4.97;;;13.80;99.90;;;;;;5023161;28;20205;-86
2023/07/25 03:27:05;;;;;;;5.72;4.63;;;13.90;99.90;;;;;;5031398;28;20663;-86
2023/07/25 03:29:33;;;;;;;6.60;4.90;;;13.90;99.90;;;;;;5033257;28;20218;-85
2023/07/25 03:32:01;;;;;;;14.40;6.55;;;14.00;99.90;;;;;;5030754;28;20545;-86
2023/07/25 03:34:29;;;;;;;7.28;4.75;;;14.00;99.90;;;;;;5023044;28;20231;-86
2023/07/25 03:36:56;;;;;;;7.60;5.82;;;14.00;99.90;;;;;;5018595;28;20798;-86
2023/07/25 03:39:24;;;;;;;7.95;5.88;;;14.00;99.90;;;;;;5008454;28;20182;-85
2023/07/25 03:41:52;;;;;;;9.73;5.88;;;14.10;99.90;;;;;;5024941;28;20198;-86
2023/07/25 03:44:20;;;;;;;6.13;4.75;;;14.00;99.90;;;;;;5024323;27;20271;-85
2023/07/25 03:46:47;;;;;;;7.07;5.20;;;14.00;99.90;;;;;;5023865;28;20221;-85
2023/07/25 03:49:16;;;;;;;8.88;6.40;;;14.10;99.90;;;;;;5004470;28;20289;-86
2023/07/25 03:51:43;;;;;;;8.70;6.05;;;14.10;99.90;;;;;;5003659;28;20183;-85
2023/07/25 03:54:11;;;;;;;7.80;5.70;;;14.10;99.90;;;;;;5006016;28;20196;-86
2023/07/25 03:56:39;;;;;;;7.88;5.55;;;14.20;99.90;;;;;;5022182;28;20183;-86
2023/07/25 03:59:07;;;;;;;10.60;6.90;;;14.10;99.90;;;;;;5030283;28;20282;-85
2023/07/25 04:01:35;;;;;;;9.30;7.07;;;14.10;99.90;;;;;;5024755;28;20192;-85
2023/07/25 04:04:02;;;;;;;7.25;5.78;;;14.10;99.90;;;;;;5006139;28;20243;-86
2023/07/25 04:06:30;;;;;;;9.80;6.47;;;14.10;99.90;;;;;;5023473;28;20284;-85
2023/07/25 04:08:58;;;;;;;9.02;6.93;;;14.20;99.90;;;;;;5030071;28;20194;-85
2023/07/25 04:11:26;;;;;;;12.98;8.68;;;14.20;99.90;;;;;;5023898;28;20194;-85
2023/07/25 04:13:54;;;;;;;15.13;8.55;;;14.20;99.90;;;;;;5025885;28;20201;-84
2023/07/25 04:16:22;;;;;;;10.93;7.60;;;14.20;99.90;;;;;;5030543;28;20200;-85
2023/07/25 04:18:50;;;;;;;10.48;7.97;;;14.20;99.90;;;;;;5019861;28;20204;-85
2023/07/25 04:21:17;;;;;;;13.10;8.55;;;14.30;99.90;;;;;;5038695;28;20194;-84
2023/07/25 04:23:46;;;;;;;14.75;9.45;;;14.30;99.90;;;;;;5024055;28;20845;-85
2023/07/25 04:26:14;;;;;;;10.48;7.93;;;14.30;99.90;;;;;;5031581;28;20270;-84
2023/07/25 04:28:41;;;;;;;14.98;9.75;;;14.30;99.90;;;;;;5017641;28;20190;-85
2023/07/25 04:31:09;;;;;;;13.80;9.50;;;14.30;99.90;;;;;;5021098;28;20250;-86
2023/07/25 04:33:37;;;;;;;15.30;9.80;;;14.20;99.90;;;;;;5022206;28;20274;-85
2023/07/25 04:36:06;;;;;;;12.95;9.10;;;14.20;99.90;;;;;;5013757;28;20258;-84
2023/07/25 04:38:33;;;;;;;18.98;10.50;;;14.30;99.90;;;;;;5022748;28;20686;-87
2023/07/25 04:41:01;;;;;;;14.77;10.18;;;14.30;99.90;;;;;;5023882;28;20193;-87
2023/07/25 04:43:29;;;;;;;15.05;10.63;;;14.20;99.90;;;;;;5097504;27;20254;-87
2023/07/25 04:45:56;;;;;;;12.18;9.00;;;14.30;99.90;;;;;;5087910;28;20569;-87
2023/07/25 04:48:25;;;;;;;15.00;9.63;;;14.30;99.90;;;;;;5022087;28;20198;-85
2023/07/25 04:50:54;;;;;;;14.48;10.10;;;14.40;99.90;;;;;;5022341;28;20213;-85
2023/07/25 04:53:21;;;;;;;13.88;10.15;;;14.40;99.90;;;;;;5035630;28;20194;-85
2023/07/25 04:55:49;;;;;;;13.48;9.55;;;14.40;99.90;;;;;;4988758;28;20212;-86
2023/07/25 04:58:16;;;;;;;12.75;9.73;;;14.40;99.90;;;;;;5020971;28;20194;-85
2023/07/25 05:00:44;;;;;;;15.63;10.00;;;14.40;99.90;;;;;;5019087;28;20194;-85
2023/07/25 05:03:12;;;;;;;12.32;9.02;;;14.40;99.90;;;;;;5012682;28;20564;-85
2023/07/25 05:05:40;;;;;;;14.70;10.30;;;14.50;99.90;;;;;;5021732;28;20292;-85
2023/07/25 05:08:07;;;;;;;14.13;10.07;;;14.50;99.90;;;;;;5021442;28;20193;-85
2023/07/25 05:10:35;;;;;;;15.73;10.60;;;14.50;99.90;;;;;;5022921;28;20213;-85
2023/07/25 05:13:09;;;;;;;18.10;11.05;;;14.50;99.90;;;;;;5019743;28;20574;-84
2023/07/25 05:15:38;;;;;;;12.45;8.68;;;14.50;99.90;;;;;;5004195;28;20201;-84
2023/07/25 05:18:06;;;;;;;13.90;9.23;;;14.50;99.90;;;;;;5016406;28;20535;-85
2023/07/25 05:20:34;;;;;;;15.50;9.15;;;14.50;99.90;;;;;;5023340;28;20190;-86
2023/07/25 05:23:01;;;;;;;13.88;10.05;;;14.50;99.90;;;;;;5028125;28;20190;-87
2023/07/25 05:25:29;;;;;;;15.95;11.02;;;14.50;99.90;;;;;;5105861;28;20202;-87
2023/07/25 05:27:57;;;;;;;14.13;10.02;;;14.50;99.90;;;;;;5020602;28;20203;-86
2023/07/25 05:30:24;;;;;;;15.88;10.55;;;14.50;99.90;;;;;;5021818;28;20194;-86
2023/07/25 05:32:52;;;;;;;13.52;8.82;;;14.50;99.90;;;;;;5009466;28;20189;-85
2023/07/25 05:35:20;;;;;;;13.38;9.55;;;14.50;99.90;;;;;;5007611;28;20205;-86
2023/07/25 05:37:47;;;;;;;13.80;10.38;;;14.50;99.90;;;;;;5026096;28;20339;-85
2023/07/25 05:40:15;;;;;;;12.13;9.38;;;14.50;99.90;;;;;;5019868;28;20183;-85
2023/07/25 05:42:43;;;;;;;14.48;10.10;;;14.50;99.90;;;;;;5028530;28;20192;-85
2023/07/25 05:45:10;;;;;;;14.20;9.90;;;14.50;99.90;;;;;;5035659;28;20226;-85
2023/07/25 05:47:39;;;;;;;14.52;10.65;;;14.60;99.90;;;;;;5027215;28;20613;-85
2023/07/25 05:50:07;;;;;;;14.80;10.50;;;14.60;99.90;;;;;;5019820;28;20210;-85
2023/07/25 05:52:35;;;;;;;18.30;11.70;;;14.60;99.90;;;;;;5020081;28;20190;-87
2023/07/25 05:55:03;;;;;;;15.85;10.23;;;14.60;99.90;;;;;;5036298;28;20186;-85
2023/07/25 05:57:31;;;;;;;13.98;10.85;;;14.60;99.90;;;;;;5028350;28;20225;-86
2023/07/25 05:59:58;;;;;;;13.50;9.80;;;14.60;99.90;;;;;;5023615;28;20276;-86
2023/07/25 06:02:26;;;;;;;17.08;10.60;;;14.70;99.90;;;;;;5028008;28;20197;-85
2023/07/25 06:04:54;;;;;;;13.80;9.73;;;14.70;99.90;;;;;;5113629;27;20198;-85
2023/07/25 06:07:21;;;;;;;14.63;10.38;;;14.70;99.90;;;;;;5023256;28;20217;-85
2023/07/25 06:09:50;;;;;;;15.85;11.15;;;14.70;99.90;;;;;;5016979;28;20218;-86
2023/07/25 06:12:18;;;;;;;15.02;10.75;;;14.70;99.90;;;;;;5024920;28;20240;-87
2023/07/25 06:14:45;;;;;;;15.73;10.75;;;14.70;99.90;;;;;;5028144;28;20668;-85
2023/07/25 06:17:13;;;;;;;15.38;11.65;;;14.70;99.90;;;;;;5026601;28;20266;-86
2023/07/25 06:19:41;;;;;;;16.40;11.32;;;14.70;99.90;;;;;;5026539;28;20602;-85
2023/07/25 06:22:09;;;;;;;14.75;10.77;;;14.70;99.90;;;;;;5024943;28;20288;-84
2023/07/25 06:24:37;;;;;;;15.70;11.30;;;14.70;99.90;;;;;;5029477;28;20440;-85
2023/07/25 06:27:05;;;;;;;18.15;10.80;;;14.70;99.90;;;;;;5018921;28;20206;-87
2023/07/25 06:29:33;;;;;;;18.35;12.23;;;14.70;99.90;;;;;;5018164;28;20199;-87
2023/07/25 06:32:00;;;;;;;16.75;12.27;;;14.70;99.90;;;;;;5027227;28;20243;-88
2023/07/25 06:34:28;;;;;;;16.08;11.05;;;14.70;99.90;;;;;;5036819;28;20190;-87
2023/07/25 06:36:56;;;;;;;17.98;11.88;;;14.70;99.90;;;;;;5036007;28;20198;-87
2023/07/25 06:39:24;;;;;;;17.80;11.23;;;14.70;99.90;;;;;;5027094;28;20194;-88
2023/07/25 06:41:51;;;;;;;17.80;12.48;;;14.70;99.90;;;;;;5098293;27;20217;-88
2023/07/25 06:44:20;;;;;;;17.63;12.85;;;14.70;99.90;;;;;;5026801;28;20238;-86
2023/07/25 06:46:48;;;;;;;16.08;11.32;;;14.80;99.90;;;;;;5094988;27;20275;-88
2023/07/25 06:49:15;;;;;;;15.30;11.05;;;14.80;99.90;;;;;;5031015;28;20193;-88
2023/07/25 06:51:43;;;;;;;17.15;12.32;;;14.80;99.90;;;;;;5027412;28;20663;-87
2023/07/25 06:54:14;;;;;;;20.13;12.88;;;14.80;99.90;;;;;;5016246;28;20183;-87
2023/07/25 06:56:42;;;;;;;16.80;12.00;;;14.90;99.90;;;;;;5026917;28;20208;-87
2023/07/25 06:59:09;;;;;;;19.45;12.95;;;14.80;99.90;;;;;;5028086;28;20198;-87
2023/07/25 07:01:37;;;;;;;20.77;13.80;;;14.90;99.90;;;;;;5024081;28;20221;-88
2023/07/25 07:04:05;;;;;;;18.45;12.57;;;14.90;99.90;;;;;;5025829;28;20205;-88
2023/07/25 07:06:34;;;;;;;19.83;13.95;;;15.00;99.90;;;;;;5026565;28;20764;-88
2023/07/25 07:09:04;;;;;;;21.00;14.13;;;15.00;99.90;;;;;;5027084;28;20190;-88
2023/07/25 07:11:37;;;;;;;22.00;15.32;;;15.00;99.90;;;;;;5028666;28;20683;-88
2023/07/25 07:14:07;;;;;;;22.52;13.85;;;15.00;99.90;;;;;;5037080;27;20182;-87
2023/07/25 07:16:36;;;;;;;20.55;13.80;;;15.10;99.90;;;;;;5026513;28;20226;-88
2023/07/25 07:19:06;;;;;;;20.45;13.55;;;15.10;99.90;;;;;;5036544;28;20221;-86
2023/07/25 07:21:38;;;;;;;20.45;13.68;;;15.10;99.90;;;;;;5018842;28;20183;-88
2023/07/25 07:24:06;;;;;;;18.55;13.38;;;15.10;99.90;;;;;;5026334;28;20552;-87
2023/07/25 07:26:37;;;;;;;18.17;12.75;;;15.20;99.90;;;;;;5023628;28;20211;-88
2023/07/25 07:29:24;;;;;;;19.42;13.82;;;15.20;99.90;;;;;;5023734;28;20194;-88
2023/07/25 07:31:51;;;;;;;19.63;13.82;;;15.20;99.90;;;;;;5025241;28;20810;-88
2023/07/25 07:34:19;;;;;;;19.38;13.13;;;15.20;99.90;;;;;;5026851;28;20182;-88
2023/07/25 07:36:47;;;;;;;19.27;13.82;;;15.30;99.90;;;;;;5006797;28;20182;-88
2023/07/25 07:39:16;;;;;;;20.42;14.82;;;15.30;99.90;;;;;;5020628;28;20200;-88
2023/07/25 07:41:43;;;;;;;22.17;14.90;;;15.40;99.90;;;;;;5041744;28;20538;-87
2023/07/25 07:44:11;;;;;;;22.85;14.82;;;15.40;99.90;;;;;;5025556;28;20234;-88
2023/07/25 07:46:39;;;;;;;21.50;14.85;;;15.40;99.90;;;;;;5024521;28;20214;-87
2023/07/25 07:49:06;;;;;;;20.00;13.73;;;15.50;99.90;;;;;;5036710;28;20239;-87
2023/07/25 07:51:34;;;;;;;20.10;14.43;;;15.50;99.90;;;;;;5007669;28;20182;-87
2023/07/25 07:54:03;;;;;;;20.15;14.48;;;15.60;99.90;;;;;;5027742;28;20228;-88
2023/07/25 07:56:30;;;;;;;19.50;13.90;;;15.60;99.90;;;;;;5027781;28;20221;-86
2023/07/25 07:58:58;;;;;;;17.80;13.27;;;15.60;99.90;;;;;;5026638;28;20194;-89
2023/07/25 08:01:26;;;;;;;18.02;12.65;;;15.60;99.90;;;;;;5023047;28;20199;-88
2023/07/25 08:03:54;;;;;;;17.25;13.15;;;15.60;99.90;;;;;;5082693;28;20259;-87
2023/07/25 08:06:22;;;;;;;21.88;14.85;;;15.60;99.90;;;;;;5035226;28;20230;-88
2023/07/25 08:08:50;;;;;;;23.35;15.95;;;15.60;99.90;;;;;;5107509;27;20186;-88
2023/07/25 08:11:18;;;;;;;19.75;13.80;;;15.60;99.90;;;;;;5035692;28;20186;-88
2023/07/25 08:13:46;;;;;;;20.17;13.63;;;15.60;99.90;;;;;;5027003;28;20549;-88
2023/07/25 08:16:14;;;;;;;22.98;14.07;;;15.60;99.90;;;;;;5024613;28;20842;-88
2023/07/25 08:18:42;;;;;;;23.40;15.00;;;15.60;99.90;;;;;;4992370;28;20218;-88
2023/07/25 08:21:10;;;;;;;23.17;15.57;;;15.60;99.90;;;;;;5025457;28;20214;-88
2023/07/25 08:23:39;;;;;;;23.05;15.05;;;15.70;99.90;;;;;;5042091;28;20218;-88
2023/07/25 08:26:11;;;;;;;21.80;15.27;;;15.60;99.90;;;;;;5009246;28;20294;-88
2023/07/25 08:28:42;;;;;;;23.83;16.08;;;15.60;99.90;;;;;;5022721;28;20190;-87
2023/07/25 08:31:10;;;;;;;25.35;15.70;;;15.70;99.90;;;;;;5003847;28;20256;-88
2023/07/25 08:33:42;;;;;;;20.88;13.48;;;15.70;99.90;;;;;;5016224;28;20190;-88
2023/07/25 08:36:10;;;;;;;19.95;14.05;;;15.70;99.90;;;;;;5027438;28;20193;-89
2023/07/25 08:38:41;;;;;;;19.17;13.98;;;15.70;99.90;;;;;;5027699;28;20189;-88
2023/07/25 08:41:16;;;;;;;20.63;14.35;;;15.70;99.90;;;;;;5025917;28;20273;-88
2023/07/25 08:43:46;;;;;;;21.58;14.85;;;15.70;99.90;;;;;;5024869;28;20320;-87
2023/07/25 08:46:19;;;;;;;19.67;13.90;;;15.70;99.90;;;;;;5026155;28;20208;-86
2023/07/25 08:48:50;;;;;;;22.02;14.75;;;15.80;99.90;;;;;;5026533;28;20546;-88
2023/07/25 08:51:23;;;;;;;20.00;13.68;;;15.80;99.90;;;;;;5024853;28;20836;-86
2023/07/25 08:54:23;;;;;;;22.40;14.35;;;15.80;99.90;;;;;;5013453;28;20734;-87
2023/07/25 08:56:53;;;;;;;19.80;13.23;;;15.80;99.90;;;;;;5024151;28;20231;-87
2023/07/25 08:59:25;;;;;;;21.42;13.68;;;15.80;99.90;;;;;;5019067;28;20541;-87
2023/07/25 09:01:54;;;;;;;20.52;14.55;;;15.90;99.90;;;;;;5021955;28;20663;-89
2023/07/25 09:04:24;;;;;;;19.27;12.38;;;15.90;99.90;;;;;;5029637;28;20313;-88
2023/07/25 09:06:54;;;;;;;17.75;13.13;;;15.90;99.90;;;;;;5029998;28;20198;-87
2023/07/25 09:09:23;;;;;;;16.63;12.38;;;16.00;99.90;;;;;;5029258;28;20183;-89
2023/07/25 09:11:54;;;;;;;20.60;14.07;;;15.90;99.90;;;;;;5013662;28;20189;-89
2023/07/25 09:14:24;;;;;;;19.23;13.65;;;16.00;99.90;;;;;;5029474;28;20197;-88
2023/07/25 09:16:53;;;;;;;17.95;13.07;;;16.00;99.90;;;;;;5010367;28;20199;-89
2023/07/25 09:19:22;;;;;;;16.45;11.93;;;16.00;99.90;;;;;;5026367;28;20202;-89
2023/07/25 09:21:56;;;;;;;16.80;11.68;;;16.00;99.90;;;;;;5011640;28;20193;-89
2023/07/25 09:24:46;;;;;;;17.92;12.73;;;16.00;99.90;;;;;;5032442;28;20203;-88
2023/07/25 09:27:17;;;;;;;21.17;13.63;;;16.10;99.90;;;;;;5022986;28;20207;-88
2023/07/25 09:29:55;;;;;;;17.75;12.55;;;16.10;99.90;;;;;;5028435;28;20205;-87
2023/07/25 09:32:36;;;;;;;18.27;12.35;;;16.10;99.90;;;;;;5011819;28;20728;-89
2023/07/25 09:35:11;;;;;;;19.45;12.57;;;16.20;99.90;;;;;;5028631;28;20214;-88
2023/07/25 09:37:54;;;;;;;18.13;12.63;;;16.30;99.90;;;;;;5028715;28;20262;-89
2023/07/25 09:40:42;;;;;;;16.42;11.50;;;16.50;99.90;;;;;;5037055;28;20217;-89
2023/07/25 09:43:36;;;;;;;17.85;12.52;;;16.50;99.90;;;;;;5029483;27;20763;-88
2023/07/25 09:46:14;;;;;;;15.43;11.48;;;16.60;99.90;;;;;;5112081;27;20198;-89
2023/07/25 09:49:00;;;;;;;16.35;10.35;;;16.60;99.90;;;;;;5026427;28;20670;-89
2023/07/25 09:51:57;;;;;;;14.88;10.60;;;16.50;99.90;;;;;;5030309;28;20190;-89
2023/07/25 09:54:38;;;;;;;14.20;10.20;;;16.60;99.90;;;;;;5009807;28;20207;-89
2023/07/25 09:57:29;;;;;;;16.75;11.05;;;16.60;99.90;;;;;;5076434;28;20194;-89
2023/07/25 10:00:13;;;;;;;14.02;9.70;;;16.70;99.90;;;;;;5027098;28;20229;-89
2023/07/25 10:03:33;;;;;;;14.60;10.75;;;16.90;99.90;;;;;;5019450;28;20460;-89
2023/07/25 10:06:39;;;;;;;15.85;10.38;;;16.90;99.90;;;;;;5013688;28;20194;-90
2023/07/25 10:09:21;;;;;;;13.25;9.85;;;17.00;99.90;;;;;;5015590;28;20182;-89
2023/07/25 10:11:56;;;;;;;16.75;8.98;;;17.10;99.90;;;;;;5021876;28;20221;-89
2023/07/25 10:14:29;;;;;;;13.75;8.95;;;17.10;99.90;;;;;;5024698;28;20183;-88
2023/07/25 10:17:07;;;;;;;13.90;9.48;;;17.00;99.90;;;;;;5043201;28;20216;-89
2023/07/25 10:19:54;;;;;;;13.65;8.15;;;17.00;99.90;;;;;;5025671;28;20194;-89
2023/07/25 10:22:42;;;;;;;13.30;8.77;;;17.00;99.90;;;;;;5038649;28;20194;-87
2023/07/25 10:25:32;;;;;;;11.00;8.55;;;17.00;99.90;;;;;;5017598;28;20198;-88
2023/07/25 10:28:13;;;;;;;11.93;7.55;;;17.00;99.90;;;;;;5026341;28;20213;-86
2023/07/25 10:30:54;;;;;;;12.48;8.40;;;17.00;99.90;;;;;;5017666;28;20724;-87
2023/07/25 10:33:39;;;;;;;12.73;8.02;;;16.90;99.90;;;;;;5027000;28;20185;-89
2023/07/25 10:36:26;;;;;;;12.70;8.65;;;16.90;99.90;;;;;;5006284;28;20278;-87
2023/07/25 10:39:26;;;;;;;10.70;7.65;;;16.90;99.90;;;;;;5020139;28;20205;-87
2023/07/25 10:42:01;;;;;;;13.80;9.02;;;17.00;99.90;;;;;;5021551;28;20216;-88
2023/07/25 10:44:40;;;;;;;12.07;8.35;;;17.00;99.90;;;;;;5036280;28;20667;-87
2023/07/25 10:47:44;;;;;;;11.45;8.30;;;17.00;99.90;;;;;;5032304;28;20225;-88
2023/07/25 10:50:25;;;;;;;13.30;8.95;;;17.00;99.90;;;;;;5036204;28;20190;-88
2023/07/25 10:52:55;;;;;;;9.98;7.47;;;17.00;99.90;;;;;;5025721;28;20186;-88
2023/07/25 10:55:23;;;;;;;14.20;8.20;;;17.00;99.90;;;;;;5025539;28;20197;-87
2023/07/25 10:58:09;;;;;;;12.23;7.97;;;16.90;99.90;;;;;;5033332;28;20305;-88
2023/07/25 11:00:38;;;;;;;12.07;8.20;;;17.00;99.90;;;;;;5025908;27;20189;-87
2023/07/25 11:03:45;;;;;;;11.98;7.70;;;17.00;99.90;;;;;;5027596;28;20193;-87
2023/07/25 11:06:14;;;;;;;12.52;8.10;;;17.00;99.90;;;;;;4986541;28;20195;-88
2023/07/25 11:08:42;;;;;;;10.95;7.63;;;17.10;99.90;;;;;;4986403;28;20218;-87
2023/07/25 11:11:12;;;;;;;13.50;8.82;;;17.10;99.90;;;;;;5004533;28;20289;-87
2023/07/25 11:13:41;;;;;;;13.43;9.23;;;17.30;99.90;;;;;;5024342;28;20208;-88
2023/07/25 11:16:11;;;;;;;12.93;8.52;;;17.30;99.90;;;;;;5019238;28;20214;-88
2023/07/25 11:18:49;;;;;;;13.68;8.75;;;17.40;99.90;;;;;;5025558;28;20193;-86
2023/07/25 11:21:18;;;;;;;12.48;8.43;;;17.50;99.90;;;;;;5036787;28;21079;-86
2023/07/25 11:23:45;;;;;;;12.52;8.52;;;17.70;99.90;;;;;;5024748;27;20198;-87
2023/07/25 11:26:15;;;;;;;13.50;9.57;;;17.90;99.90;;;;;;5027707;28;20225;-86
2023/07/25 11:28:43;;;;;;;11.45;8.90;;;18.00;99.90;;;;;;5024846;27;20209;-86
2023/07/25 11:31:11;;;;;;;12.30;8.45;;;18.10;99.90;;;;;;5024040;28;20196;-87
2023/07/25 11:33:42;;;;;;;13.70;9.13;;;18.20;99.90;;;;;;5020419;28;20201;-85
2023/07/25 11:36:10;;;;;;;13.20;8.75;;;18.40;99.90;;;;;;5014808;28;20273;-86
2023/07/25 11:38:38;;;;;;;13.20;9.15;;;18.50;99.90;;;;;;5012947;28;20302;-86
2023/07/25 11:41:07;;;;;;;14.05;9.15;;;18.80;99.90;;;;;;5018881;28;20278;-86
2023/07/25 11:43:35;;;;;;;10.00;8.02;;;18.90;99.90;;;;;;4995526;28;20950;-86
2023/07/25 11:46:03;;;;;;;13.60;9.13;;;18.80;99.90;;;;;;5012350;28;20838;-86
2023/07/25 11:48:32;;;;;;;10.90;8.50;;;18.70;99.90;;;;;;5004520;28;20734;-86
2023/07/25 11:51:02;;;;;;;12.13;8.52;;;18.70;99.90;;;;;;5024701;28;20186;-86
2023/07/25 11:53:33;;;;;;;10.20;7.65;;;18.60;99.90;;;;;;5009667;28;20194;-86
2023/07/25 11:56:04;;;;;;;10.00;7.53;;;18.60;99.90;;;;;;5023211;28;20186;-86
2023/07/25 11:58:37;;;;;;;11.13;7.28;;;18.70;99.90;;;;;;5022923;28;20190;-86
2023/07/25 12:01:09;;;;;;;11.35;7.30;;;18.90;99.90;;;;;;5016058;28;20183;-86
2023/07/25 12:03:47;;;;;;;11.02;6.75;;;18.70;99.90;;;;;;5014151;28;20327;-85
2023/07/25 12:06:27;;;;;;;9.27;6.45;;;18.70;99.90;;;;;;5005276;28;20198;-86
2023/07/25 12:08:57;;;;;;;9.88;7.25;;;18.70;99.90;;;;;;5020403;28;20214;-87
2023/07/25 12:11:26;;;;;;;9.30;6.22;;;18.70;99.90;;;;;;5022380;28;20186;-85
2023/07/25 12:13:59;;;;;;;8.55;6.28;;;18.80;99.90;;;;;;5022725;28;20189;-86
2023/07/25 12:16:44;;;;;;;11.52;6.35;;;18.80;99.90;;;;;;5016061;28;20268;-86
2023/07/25 12:19:14;;;;;;;9.27;6.00;;;18.90;99.90;;;;;;5012747;28;20187;-86
2023/07/25 12:21:45;;;;;;;8.45;6.15;;;18.90;99.90;;;;;;5022833;28;20217;-85
2023/07/25 12:24:16;;;;;;;9.52;5.72;;;19.20;99.90;;;;;;5023599;28;20250;-86
2023/07/25 12:26:55;;;;;;;5.90;4.50;;;19.40;99.90;;;;;;5018775;28;20193;-85
2023/07/25 12:29:36;;;;;;;8.15;5.47;;;19.60;99.90;;;;;;5027072;28;20232;-86
2023/07/25 12:32:15;;;;;;;7.70;5.10;;;20.00;99.90;;;;;;5023056;28;20189;-86
2023/07/25 12:34:45;;;;;;;6.95;5.00;;;19.80;99.90;;;;;;5020613;28;20189;-87
2023/07/25 12:37:14;;;;;;;7.47;5.07;;;19.80;99.90;;;;;;5036034;28;20222;-86
2023/07/25 12:39:45;;;;;;;6.03;4.55;;;19.80;99.90;;;;;;5023902;28;20178;-85
2023/07/25 12:42:13;;;;;;;7.55;4.90;;;19.80;99.90;;;;;;5022795;28;20193;-84
2023/07/25 12:44:41;;;;;;;5.43;4.40;;;19.70;99.90;;;;;;5021556;28;20236;-84
2023/07/25 12:47:09;;;;;;;10.88;5.05;;;19.60;99.90;;;;;;5022807;28;20194;-82
2023/07/25 12:49:37;;;;;;;8.32;5.10;;;19.50;99.90;;;;;;5021311;28;20190;-85
2023/07/25 12:52:05;;;;;;;9.15;4.60;;;19.40;99.90;;;;;;5022592;28;20183;-85
2023/07/25 12:54:36;;;;;;;5.57;3.92;;;19.30;99.90;;;;;;5005900;28;20281;-86